createdAt,value
2018-09-02T00:00:58.512Z,1021.83
2018-09-02T00:01:58.527Z,1021.81
2018-09-02T00:02:58.496Z,1021.84
2018-09-02T00:03:58.505Z,1021.83
2018-09-02T00:04:58.504Z,1021.85
2018-09-02T00:05:58.507Z,1021.86
2018-09-02T00:06:58.530Z,1021.87
2018-09-02T00:07:58.520Z,1021.82
2018-09-02T00:08:58.544Z,1021.82
2018-09-02T00:09:58.538Z,1021.82
2018-09-02T00:10:58.538Z,1021.83
2018-09-02T00:11:58.527Z,1021.80
2018-09-02T00:12:58.527Z,1021.81
2018-09-02T00:13:58.532Z,1021.79
2018-09-02T00:14:58.545Z,1021.78
2018-09-02T00:15:58.535Z,1021.77
2018-09-02T00:16:58.532Z,1021.74
2018-09-02T00:17:58.565Z,1021.72
2018-09-02T00:18:58.545Z,1021.72
2018-09-02T00:19:58.549Z,1021.73
2018-09-02T00:20:58.568Z,1021.75
2018-09-02T00:21:58.555Z,1021.73
2018-09-02T00:22:58.573Z,1021.69
2018-09-02T00:23:58.574Z,1021.69
2018-09-02T00:24:58.545Z,1021.71
2018-09-02T00:25:58.548Z,1021.73
2018-09-02T00:26:58.549Z,1021.74
2018-09-02T00:27:58.545Z,1021.74
2018-09-02T00:28:58.589Z,1021.76
2018-09-02T00:29:58.548Z,1021.77
2018-09-02T00:30:58.567Z,1021.73
2018-09-02T00:31:58.569Z,1021.77
2018-09-02T00:32:58.622Z,1021.80
2018-09-02T00:33:58.646Z,1021.75
2018-09-02T00:34:58.590Z,1021.75
2018-09-02T00:35:58.579Z,1021.77
2018-09-02T00:36:58.578Z,1021.75
2018-09-02T00:37:58.580Z,1021.81
2018-09-02T00:38:58.590Z,1021.75
2018-09-02T00:39:58.586Z,1021.78
2018-09-02T00:40:58.589Z,1021.78
2018-09-02T00:41:58.575Z,1021.75
2018-09-02T00:42:58.582Z,1021.79
2018-09-02T00:43:58.647Z,1021.76
2018-09-02T00:44:58.574Z,1021.79
2018-09-02T00:45:58.580Z,1021.77
2018-09-02T00:46:58.592Z,1021.75
2018-09-02T00:47:58.636Z,1021.71
2018-09-02T00:48:58.720Z,1021.74
2018-09-02T00:49:58.588Z,1021.73
2018-09-02T00:50:58.592Z,1021.74
2018-09-02T00:51:58.593Z,1021.71
2018-09-02T00:52:58.595Z,1021.72
2018-09-02T00:53:58.600Z,1021.71
2018-09-02T00:54:58.601Z,1021.72
2018-09-02T00:55:58.620Z,1021.70
2018-09-02T00:56:58.621Z,1021.72
2018-09-02T00:57:58.604Z,1021.72
2018-09-02T00:58:58.773Z,1021.72
2018-09-02T00:59:58.637Z,1021.68
2018-09-02T01:00:58.611Z,1021.71
2018-09-02T01:01:58.679Z,1021.73
2018-09-02T01:02:58.632Z,1021.73
2018-09-02T01:03:58.661Z,1021.74
2018-09-02T01:04:58.627Z,1021.77
2018-09-02T01:05:58.621Z,1021.78
2018-09-02T01:06:58.633Z,1021.76
2018-09-02T01:07:58.646Z,1021.78
2018-09-02T01:08:58.624Z,1021.75
2018-09-02T01:09:58.632Z,1021.79
2018-09-02T01:10:58.650Z,1021.81
2018-09-02T01:11:58.632Z,1021.79
2018-09-02T01:12:58.656Z,1021.78
2018-09-02T01:13:58.643Z,1021.79
2018-09-02T01:14:59.133Z,1021.77
2018-09-02T01:15:58.664Z,1021.77
2018-09-02T01:16:58.653Z,1021.77
2018-09-02T01:17:58.669Z,1021.78
2018-09-02T01:18:58.651Z,1021.76
2018-09-02T01:19:58.743Z,1021.77
2018-09-02T01:20:58.648Z,1021.68
2018-09-02T01:21:58.670Z,1021.68
2018-09-02T01:22:58.701Z,1021.71
2018-09-02T01:23:58.679Z,1021.70
2018-09-02T01:24:58.654Z,1021.76
2018-09-02T01:25:58.663Z,1021.75
2018-09-02T01:26:58.667Z,1021.72
2018-09-02T01:27:58.666Z,1021.76
2018-09-02T01:28:58.654Z,1021.76
2018-09-02T01:29:58.656Z,1021.76
2018-09-02T01:30:58.696Z,1021.74
2018-09-02T01:31:58.669Z,1021.75
2018-09-02T01:32:58.719Z,1021.77
2018-09-02T01:33:58.681Z,1021.80
2018-09-02T01:34:58.696Z,1021.78
2018-09-02T01:35:58.681Z,1021.79
2018-09-02T01:36:58.675Z,1021.78
2018-09-02T01:37:58.669Z,1021.83
2018-09-02T01:38:58.720Z,1021.78
2018-09-02T01:39:58.690Z,1021.79
2018-09-02T01:40:58.694Z,1021.73
2018-09-02T01:41:58.702Z,1021.74
2018-09-02T01:42:58.685Z,1021.77
2018-09-02T01:43:58.686Z,1021.74
2018-09-02T01:44:58.693Z,1021.77
2018-09-02T01:45:59.646Z,1021.73
2018-09-02T01:46:58.702Z,1021.76
2018-09-02T01:47:58.721Z,1021.75
2018-09-02T01:48:58.797Z,1021.74
2018-09-02T01:49:58.712Z,1021.71
2018-09-02T01:50:58.709Z,1021.73
2018-09-02T01:51:58.777Z,1021.73
2018-09-02T01:52:58.706Z,1021.72
2018-09-02T01:53:58.716Z,1021.73
2018-09-02T01:54:58.705Z,1021.78
2018-09-02T01:55:59.643Z,1021.78
2018-09-02T01:56:58.709Z,1021.79
2018-09-02T01:57:58.839Z,1021.74
2018-09-02T01:58:58.720Z,1021.76
2018-09-02T01:59:58.731Z,1021.76
2018-09-02T02:00:58.732Z,1021.75
2018-09-02T02:01:58.813Z,1021.74
2018-09-02T02:02:58.726Z,1021.76
2018-09-02T02:03:58.943Z,1021.76
2018-09-02T02:04:58.730Z,1021.79
2018-09-02T02:05:58.745Z,1021.81
2018-09-02T02:06:58.756Z,1021.82
2018-09-02T02:07:58.743Z,1021.79
2018-09-02T02:08:58.787Z,1021.79
2018-09-02T02:09:59.666Z,1021.82
2018-09-02T02:10:58.962Z,1021.81
2018-09-02T02:11:58.786Z,1021.84
2018-09-02T02:12:58.752Z,1021.84
2018-09-02T02:13:58.826Z,1021.77
2018-09-02T02:14:58.833Z,1021.84
2018-09-02T02:15:58.761Z,1021.80
2018-09-02T02:16:59.087Z,1021.81
2018-09-02T02:17:58.761Z,1021.84
2018-09-02T02:18:59.036Z,1021.82
2018-09-02T02:19:58.809Z,1021.83
2018-09-02T02:20:58.765Z,1021.80
2018-09-02T02:21:58.802Z,1021.81
2018-09-02T02:22:58.947Z,1021.83
2018-09-02T02:23:58.847Z,1021.85
2018-09-02T02:24:59.053Z,1021.81
2018-09-02T02:25:58.801Z,1021.80
2018-09-02T02:26:58.932Z,1021.78
2018-09-02T02:27:58.767Z,1021.74
2018-09-02T02:28:58.767Z,1021.76
2018-09-02T02:29:58.793Z,1021.77
2018-09-02T02:30:58.807Z,1021.77
2018-09-02T02:31:58.858Z,1021.76
2018-09-02T02:32:58.802Z,1021.74
2018-09-02T02:33:59.155Z,1021.77
2018-09-02T02:34:58.855Z,1021.78
2018-09-02T02:35:58.835Z,1021.74
2018-09-02T02:36:58.784Z,1021.76
2018-09-02T02:37:58.845Z,1021.75
2018-09-02T02:38:58.837Z,1021.77
2018-09-02T02:39:59.184Z,1021.74
2018-09-02T02:40:58.879Z,1021.72
2018-09-02T02:41:58.904Z,1021.71
2018-09-02T02:42:58.789Z,1021.67
2018-09-02T02:43:58.800Z,1021.66
2018-09-02T02:44:58.846Z,1021.68
2018-09-02T02:45:58.849Z,1021.64
2018-09-02T02:46:59.036Z,1021.64
2018-09-02T02:47:58.815Z,1021.67
2018-09-02T02:48:58.886Z,1021.64
2018-09-02T02:49:58.865Z,1021.66
2018-09-02T02:50:59.658Z,1021.66
2018-09-02T02:51:58.889Z,1021.66
2018-09-02T02:52:58.818Z,1021.67
2018-09-02T02:53:58.898Z,1021.66
2018-09-02T02:54:58.812Z,1021.64
2018-09-02T02:55:58.821Z,1021.64
2018-09-02T02:56:58.831Z,1021.65
2018-09-02T02:57:59.703Z,1021.67
2018-09-02T02:58:59.140Z,1021.64
2018-09-02T02:59:58.823Z,1021.65
2018-09-02T03:00:59.045Z,1021.64
2018-09-02T03:01:58.829Z,1021.63
2018-09-02T03:02:59.004Z,1021.61
2018-09-02T03:03:58.955Z,1021.60
2018-09-02T03:04:58.897Z,1021.58
2018-09-02T03:05:59.115Z,1021.59
2018-09-02T03:06:59.074Z,1021.60
2018-09-02T03:07:58.869Z,1021.58
2018-09-02T03:08:58.877Z,1021.59
2018-09-02T03:09:58.860Z,1021.60
2018-09-02T03:10:58.876Z,1021.54
2018-09-02T03:11:58.849Z,1021.56
2018-09-02T03:12:58.863Z,1021.54
2018-09-02T03:13:58.944Z,1021.52
2018-09-02T03:14:59.162Z,1021.52
2018-09-02T03:15:58.868Z,1021.56
2018-09-02T03:16:59.198Z,1021.52
2018-09-02T03:17:58.859Z,1021.53
2018-09-02T03:18:59.104Z,1021.52
2018-09-02T03:19:58.857Z,1021.49
2018-09-02T03:20:59.102Z,1021.52
2018-09-02T03:21:58.887Z,1021.50
2018-09-02T03:22:58.891Z,1021.47
2018-09-02T03:23:58.866Z,1021.49
2018-09-02T03:24:58.876Z,1021.50
2018-09-02T03:25:58.928Z,1021.48
2018-09-02T03:26:58.885Z,1021.51
2018-09-02T03:27:58.902Z,1021.48
2018-09-02T03:28:58.868Z,1021.47
2018-09-02T03:29:58.870Z,1021.44
2018-09-02T03:30:58.882Z,1021.46
2018-09-02T03:31:58.946Z,1021.48
2018-09-02T03:32:58.900Z,1021.43
2018-09-02T03:33:59.007Z,1021.44
2018-09-02T03:34:58.982Z,1021.44
2018-09-02T03:35:58.883Z,1021.40
2018-09-02T03:36:59.013Z,1021.40
2018-09-02T03:37:58.916Z,1021.44
2018-09-02T03:38:58.976Z,1021.40
2018-09-02T03:39:58.890Z,1021.43
2018-09-02T03:40:58.900Z,1021.38
2018-09-02T03:41:59.046Z,1021.40
2018-09-02T03:42:58.897Z,1021.36
2018-09-02T03:43:59.027Z,1021.39
2018-09-02T03:44:58.925Z,1021.38
2018-09-02T03:45:59.014Z,1021.36
2018-09-02T03:46:59.252Z,1021.40
2018-09-02T03:47:59.358Z,1021.36
2018-09-02T03:48:58.982Z,1021.35
2018-09-02T03:49:59.125Z,1021.36
2018-09-02T03:50:58.923Z,1021.39
2018-09-02T03:51:58.977Z,1021.36
2018-09-02T03:52:58.934Z,1021.36
2018-09-02T03:53:58.929Z,1021.37
2018-09-02T03:54:58.945Z,1021.35
2018-09-02T03:55:59.013Z,1021.36
2018-09-02T03:56:58.922Z,1021.39
2018-09-02T03:57:58.935Z,1021.36
2018-09-02T03:58:58.933Z,1021.34
2018-09-02T03:59:58.924Z,1021.40
2018-09-02T04:00:58.940Z,1021.34
2018-09-02T04:01:59.026Z,1021.29
2018-09-02T04:02:58.938Z,1021.31
2018-09-02T04:03:58.938Z,1021.28
2018-09-02T04:04:59.015Z,1021.28
2018-09-02T04:05:58.948Z,1021.27
2018-09-02T04:06:58.963Z,1021.32
2018-09-02T04:07:58.967Z,1021.28
2018-09-02T04:08:58.949Z,1021.31
2018-09-02T04:09:58.948Z,1021.28
2018-09-02T04:10:58.960Z,1021.29
2018-09-02T04:11:58.951Z,1021.27
2018-09-02T04:12:58.944Z,1021.25
2018-09-02T04:13:58.956Z,1021.23
2018-09-02T04:14:58.951Z,1021.22
2018-09-02T04:15:58.961Z,1021.24
2018-09-02T04:16:58.971Z,1021.22
2018-09-02T04:17:59.689Z,1021.24
2018-09-02T04:18:58.987Z,1021.17
2018-09-02T04:19:58.972Z,1021.18
2018-09-02T04:20:58.964Z,1021.16
2018-09-02T04:21:58.966Z,1021.16
2018-09-02T04:22:58.971Z,1021.17
2018-09-02T04:23:58.976Z,1021.15
2018-09-02T04:24:58.973Z,1021.16
2018-09-02T04:25:58.993Z,1021.17
2018-09-02T04:26:58.982Z,1021.20
2018-09-02T04:27:58.992Z,1021.23
2018-09-02T04:28:58.987Z,1021.22
2018-09-02T04:29:58.989Z,1021.23
2018-09-02T04:30:59.021Z,1021.22
2018-09-02T04:31:59.035Z,1021.25
2018-09-02T04:32:58.981Z,1021.26
2018-09-02T04:33:59.028Z,1021.23
2018-09-02T04:34:59.044Z,1021.18
2018-09-02T04:35:59.000Z,1021.22
2018-09-02T04:36:59.005Z,1021.23
2018-09-02T04:37:59.029Z,1021.24
2018-09-02T04:38:59.027Z,1021.27
2018-09-02T04:39:59.043Z,1021.26
2018-09-02T04:40:59.016Z,1021.23
2018-09-02T04:41:59.011Z,1021.25
2018-09-02T04:42:59.027Z,1021.22
2018-09-02T04:43:59.004Z,1021.24
2018-09-02T04:44:59.170Z,1021.26
2018-09-02T04:45:58.998Z,1021.21
2018-09-02T04:46:59.008Z,1021.22
2018-09-02T04:47:59.006Z,1021.20
2018-09-02T04:48:59.034Z,1021.22
2018-09-02T04:49:59.005Z,1021.23
2018-09-02T04:50:59.021Z,1021.25
2018-09-02T04:51:59.025Z,1021.22
2018-09-02T04:52:59.701Z,1021.19
2018-09-02T04:53:59.017Z,1021.22
2018-09-02T04:54:59.015Z,1021.24
2018-09-02T04:55:59.073Z,1021.26
2018-09-02T04:56:59.044Z,1021.28
2018-09-02T04:57:59.028Z,1021.25
2018-09-02T04:58:59.021Z,1021.29
2018-09-02T04:59:59.032Z,1021.26
2018-09-02T05:00:59.055Z,1021.27
2018-09-02T05:01:59.046Z,1021.28
2018-09-02T05:02:59.034Z,1021.31
2018-09-02T05:03:59.039Z,1021.26
2018-09-02T05:04:59.047Z,1021.27
2018-09-02T05:05:59.071Z,1021.26
2018-09-02T05:06:59.060Z,1021.31
2018-09-02T05:07:59.060Z,1021.28
2018-09-02T05:08:59.048Z,1021.28
2018-09-02T05:09:59.057Z,1021.30
2018-09-02T05:10:59.055Z,1021.28
2018-09-02T05:11:59.200Z,1021.25
2018-09-02T05:12:59.054Z,1021.27
2018-09-02T05:13:59.122Z,1021.27
2018-09-02T05:14:59.081Z,1021.27
2018-09-02T05:15:59.052Z,1021.30
2018-09-02T05:16:59.053Z,1021.27
2018-09-02T05:17:59.063Z,1021.27
2018-09-02T05:18:59.078Z,1021.30
2018-09-02T05:19:59.068Z,1021.31
2018-09-02T05:20:59.081Z,1021.38
2018-09-02T05:21:59.069Z,1021.39
2018-09-02T05:22:59.070Z,1021.38
2018-09-02T05:23:59.073Z,1021.40
2018-09-02T05:24:59.163Z,1021.38
2018-09-02T05:25:59.089Z,1021.41
2018-09-02T05:26:59.075Z,1021.40
2018-09-02T05:27:59.082Z,1021.44
2018-09-02T05:28:59.079Z,1021.39
2018-09-02T05:29:59.095Z,1021.41
2018-09-02T05:30:59.077Z,1021.39
2018-09-02T05:31:59.078Z,1021.40
2018-09-02T05:32:59.099Z,1021.38
2018-09-02T05:33:59.096Z,1021.37
2018-09-02T05:34:59.115Z,1021.38
2018-09-02T05:35:59.096Z,1021.37
2018-09-02T05:36:59.198Z,1021.41
2018-09-02T05:37:59.102Z,1021.41
2018-09-02T05:38:59.099Z,1021.47
2018-09-02T05:39:59.107Z,1021.50
2018-09-02T05:40:59.112Z,1021.49
2018-09-02T05:41:59.125Z,1021.46
2018-09-02T05:42:59.208Z,1021.49
2018-09-02T05:43:59.179Z,1021.52
2018-09-02T05:44:59.108Z,1021.53
2018-09-02T05:45:59.147Z,1021.49
2018-09-02T05:46:59.111Z,1021.50
2018-09-02T05:47:59.141Z,1021.52
2018-09-02T05:48:59.115Z,1021.52
2018-09-02T05:49:59.111Z,1021.51
2018-09-02T05:50:59.154Z,1021.55
2018-09-02T05:51:59.128Z,1021.56
2018-09-02T05:52:59.129Z,1021.61
2018-09-02T05:53:59.138Z,1021.57
2018-09-02T05:54:59.171Z,1021.60
2018-09-02T05:55:59.276Z,1021.63
2018-09-02T05:56:59.154Z,1021.62
2018-09-02T05:57:59.138Z,1021.67
2018-09-02T05:58:59.141Z,1021.68
2018-09-02T05:59:59.144Z,1021.66
2018-09-02T06:00:59.130Z,1021.70
2018-09-02T06:01:59.140Z,1021.74
2018-09-02T06:02:59.162Z,1021.72
2018-09-02T06:03:59.169Z,1021.69
2018-09-02T06:04:59.159Z,1021.71
2018-09-02T06:05:59.163Z,1021.70
2018-09-02T06:06:59.183Z,1021.71
2018-09-02T06:07:59.162Z,1021.68
2018-09-02T06:08:59.232Z,1021.69
2018-09-02T06:09:59.159Z,1021.71
2018-09-02T06:10:59.163Z,1021.74
2018-09-02T06:11:59.179Z,1021.73
2018-09-02T06:12:59.165Z,1021.72
2018-09-02T06:13:59.195Z,1021.72
2018-09-02T06:14:59.176Z,1021.76
2018-09-02T06:15:59.183Z,1021.77
2018-09-02T06:16:59.197Z,1021.80
2018-09-02T06:17:59.185Z,1021.78
2018-09-02T06:18:59.226Z,1021.80
2018-09-02T06:19:59.197Z,1021.76
2018-09-02T06:20:59.185Z,1021.80
2018-09-02T06:21:59.246Z,1021.83
2018-09-02T06:22:59.192Z,1021.84
2018-09-02T06:23:59.213Z,1021.87
2018-09-02T06:24:59.212Z,1021.87
2018-09-02T06:25:59.206Z,1021.85
2018-09-02T06:26:59.270Z,1021.87
2018-09-02T06:27:59.222Z,1021.93
2018-09-02T06:28:59.280Z,1021.92
2018-09-02T06:29:59.249Z,1021.92
2018-09-02T06:30:59.250Z,1021.92
2018-09-02T06:31:59.260Z,1021.93
2018-09-02T06:32:59.329Z,1021.90
2018-09-02T06:33:59.290Z,1021.87
2018-09-02T06:34:59.231Z,1021.92
2018-09-02T06:35:59.266Z,1021.91
2018-09-02T06:36:59.264Z,1021.90
2018-09-02T06:37:59.261Z,1021.93
2018-09-02T06:38:59.265Z,1021.94
2018-09-02T06:39:59.292Z,1021.95
2018-09-02T06:40:59.277Z,1021.99
2018-09-02T06:41:59.274Z,1022.00
2018-09-02T06:42:59.272Z,1022.01
2018-09-02T06:43:59.275Z,1022.01
2018-09-02T06:44:59.288Z,1022.04
2018-09-02T06:45:59.295Z,1022.05
2018-09-02T06:46:59.306Z,1022.03
2018-09-02T06:47:59.307Z,1022.09
2018-09-02T06:48:59.315Z,1022.08
2018-09-02T06:49:59.396Z,1022.12
2018-09-02T06:50:59.320Z,1022.11
2018-09-02T06:51:59.349Z,1022.07
2018-09-02T06:52:59.358Z,1022.06
2018-09-02T06:53:59.314Z,1022.08
2018-09-02T06:54:59.325Z,1022.01
2018-09-02T06:55:59.330Z,1022.00
2018-09-02T06:56:59.328Z,1022.01
2018-09-02T06:57:59.346Z,1022.05
2018-09-02T06:58:59.335Z,1022.09
2018-09-02T06:59:59.367Z,1022.07
2018-09-02T07:00:59.367Z,1022.04
2018-09-02T07:01:59.368Z,1022.08
2018-09-02T07:02:59.372Z,1022.04
2018-09-02T07:03:59.371Z,1022.08
2018-09-02T07:04:59.423Z,1022.08
2018-09-02T07:05:59.388Z,1022.13
2018-09-02T07:06:59.394Z,1022.07
2018-09-02T07:07:59.401Z,1022.10
2018-09-02T07:08:59.394Z,1022.10
2018-09-02T07:09:59.415Z,1022.12
2018-09-02T07:10:59.414Z,1022.13
2018-09-02T07:11:59.430Z,1022.16
2018-09-02T07:12:59.445Z,1022.21
2018-09-02T07:13:59.507Z,1022.23
2018-09-02T07:14:59.476Z,1022.23
2018-09-02T07:15:59.463Z,1022.22
2018-09-02T07:16:59.458Z,1022.23
2018-09-02T07:17:59.513Z,1022.26
2018-09-02T07:18:59.499Z,1022.25
2018-09-02T07:19:59.530Z,1022.26
2018-09-02T07:20:59.633Z,1022.28
2018-09-02T07:21:59.514Z,1022.24
2018-09-02T07:22:59.515Z,1022.27
2018-09-02T07:23:59.523Z,1022.28
2018-09-02T07:24:59.519Z,1022.32
2018-09-02T07:25:59.536Z,1022.31
2018-09-02T07:26:59.546Z,1022.36
2018-09-02T07:27:59.637Z,1022.32
2018-09-02T07:28:59.534Z,1022.34
2018-09-02T07:29:59.581Z,1022.37
2018-09-02T07:30:59.554Z,1022.33
2018-09-02T07:31:59.580Z,1022.39
2018-09-02T07:32:59.582Z,1022.39
2018-09-02T07:33:59.582Z,1022.35
2018-09-02T07:34:59.585Z,1022.39
2018-09-02T07:35:59.615Z,1022.42
2018-09-02T07:36:59.600Z,1022.42
2018-09-02T07:37:59.748Z,1022.46
2018-09-02T07:38:59.623Z,1022.47
2018-09-02T07:39:59.638Z,1022.44
2018-09-02T07:40:59.665Z,1022.47
2018-09-02T07:41:59.662Z,1022.44
2018-09-02T07:42:59.679Z,1022.42
2018-09-02T07:43:59.694Z,1022.49
2018-09-02T07:44:59.726Z,1022.49
2018-09-02T07:45:59.682Z,1022.49
2018-09-02T07:46:59.694Z,1022.54
2018-09-02T07:47:59.731Z,1022.58
2018-09-02T07:48:59.716Z,1022.57
2018-09-02T07:49:59.782Z,1022.60
2018-09-02T07:50:59.803Z,1022.65
2018-09-02T07:51:59.744Z,1022.67
2018-09-02T07:52:59.789Z,1022.71
2018-09-02T07:53:59.754Z,1022.76
2018-09-02T07:54:59.794Z,1022.80
2018-09-02T07:55:59.783Z,1022.77
2018-09-02T07:56:59.794Z,1022.87
2018-09-02T07:57:59.835Z,1022.86
2018-09-02T07:58:59.804Z,1022.93
2018-09-02T07:59:59.821Z,1022.86
2018-09-02T08:00:59.879Z,1022.92
2018-09-02T08:01:59.860Z,1022.99
2018-09-02T08:02:59.885Z,1023.00
2018-09-02T08:03:59.884Z,1023.04
2018-09-02T08:04:59.885Z,1023.09
2018-09-02T08:05:59.919Z,1023.14
2018-09-02T08:06:59.903Z,1023.17
2018-09-02T08:07:59.896Z,1023.22
2018-09-02T08:08:59.942Z,1023.28
2018-09-02T08:09:59.920Z,1023.27
2018-09-02T08:10:59.949Z,1023.35
2018-09-02T08:11:59.968Z,1023.38
2018-09-02T08:13:00.132Z,1023.40
2018-09-02T08:13:59.955Z,1023.53
2018-09-02T08:14:59.977Z,1023.52
2018-09-02T08:16:00.095Z,1023.53
2018-09-02T08:16:59.993Z,1023.61
2018-09-02T08:18:00.001Z,1023.65
2018-09-02T08:19:00.035Z,1023.66
2018-09-02T08:20:00.025Z,1023.72
2018-09-02T08:21:00.075Z,1023.76
2018-09-02T08:22:00.342Z,1023.83
2018-09-02T08:23:00.096Z,1023.85
2018-09-02T08:24:00.153Z,1023.89
2018-09-02T08:25:00.115Z,1023.92
2018-09-02T08:26:00.126Z,1024.00
2018-09-02T08:27:00.099Z,1024.02
2018-09-02T08:28:00.124Z,1024.06
2018-09-02T08:29:00.136Z,1024.15
2018-09-02T08:30:00.149Z,1024.20
2018-09-02T08:31:00.181Z,1024.20
2018-09-02T08:32:00.168Z,1024.30
2018-09-02T08:33:00.227Z,1024.37
2018-09-02T08:34:00.175Z,1024.46
2018-09-02T08:35:00.235Z,1024.59
2018-09-02T08:36:00.215Z,1024.65
2018-09-02T08:37:00.225Z,1024.80
2018-09-02T08:38:00.226Z,1025.06
2018-09-02T08:39:00.289Z,1025.80
2018-09-02T08:40:00.260Z,1027.22
2018-09-02T08:41:00.272Z,1028.59
2018-09-02T08:42:00.315Z,1029.50
2018-09-02T08:43:00.296Z,1030.81
2018-09-02T08:44:00.465Z,1031.16
2018-09-02T08:45:00.337Z,1031.49
2018-09-02T08:46:00.323Z,1029.92
2018-09-02T08:47:00.398Z,1027.88
2018-09-02T08:48:00.352Z,1028.00
2018-09-02T08:49:00.431Z,1028.81
2018-09-02T08:50:00.413Z,1030.76
2018-09-02T08:51:00.404Z,1033.70
2018-09-02T08:52:00.431Z,1033.39
2018-09-02T08:53:00.411Z,1028.59
2018-09-02T08:54:00.461Z,1025.39
2018-09-02T08:55:00.508Z,1024.44
2018-09-02T08:56:00.516Z,1024.11
2018-09-02T08:57:00.480Z,1023.86
2018-09-02T08:58:00.486Z,1023.69
2018-09-02T08:59:00.524Z,1023.54
2018-09-02T09:00:00.513Z,1023.46
2018-09-02T09:01:00.667Z,1023.36
2018-09-02T09:02:00.539Z,1023.22
2018-09-02T09:03:00.575Z,1023.18
2018-09-02T09:04:00.607Z,1023.10
2018-09-02T09:05:00.599Z,1023.05
2018-09-02T09:06:00.671Z,1022.98
2018-09-02T09:07:00.635Z,1022.96
2018-09-02T09:08:00.684Z,1022.87
2018-09-02T09:09:00.952Z,1022.85
2018-09-02T09:10:00.661Z,1022.86
2018-09-02T09:11:00.667Z,1022.79
2018-09-02T09:12:00.702Z,1022.81
2018-09-02T09:13:00.716Z,1022.84
2018-09-02T09:14:00.724Z,1022.84
2018-09-02T09:15:00.766Z,1022.80
2018-09-02T09:16:00.740Z,1022.81
2018-09-02T09:17:00.838Z,1022.94
2018-09-02T09:18:00.790Z,1022.97
2018-09-02T09:19:00.792Z,1023.26
2018-09-02T09:20:00.806Z,1024.17
2018-09-02T09:21:00.951Z,1025.41
2018-09-02T09:22:00.854Z,1025.95
2018-09-02T09:23:00.840Z,1025.59
2018-09-02T09:24:00.869Z,1024.58
2018-09-02T09:25:00.933Z,1024.16
2018-09-02T09:26:00.945Z,1023.67
2018-09-02T09:27:00.904Z,1023.42
2018-09-02T09:28:01.045Z,1023.31
2018-09-02T09:29:00.954Z,1023.26
2018-09-02T09:30:00.937Z,1023.20
2018-09-02T09:31:01.848Z,1023.10
2018-09-02T09:32:00.988Z,1023.08
2018-09-02T09:33:00.977Z,1023.06
2018-09-02T09:34:01.004Z,1022.95
2018-09-02T09:35:01.031Z,1022.95
2018-09-02T09:36:01.048Z,1023.08
2018-09-02T09:37:01.041Z,1023.21
2018-09-02T09:38:01.060Z,1023.41
2018-09-02T09:39:01.066Z,1023.68
2018-09-02T09:40:01.097Z,1023.96
2018-09-02T09:41:01.854Z,1024.41
2018-09-02T09:42:01.126Z,1024.71
2018-09-02T09:43:01.155Z,1024.74
2018-09-02T09:44:01.179Z,1025.03
2018-09-02T09:45:01.162Z,1025.44
2018-09-02T09:46:01.255Z,1025.88
2018-09-02T09:47:01.245Z,1026.43
2018-09-02T09:48:01.215Z,1027.09
2018-09-02T09:49:01.233Z,1027.45
2018-09-02T09:50:01.277Z,1027.40
2018-09-02T09:51:01.290Z,1027.90
2018-09-02T09:52:01.279Z,1028.21
2018-09-02T09:53:01.332Z,1028.06
2018-09-02T09:54:01.319Z,1028.02
2018-09-02T09:55:01.316Z,1028.57
2018-09-02T09:56:01.361Z,1029.15
2018-09-02T09:57:01.364Z,1029.99
2018-09-02T09:58:01.404Z,1030.58
2018-09-02T09:59:01.396Z,1031.52
2018-09-02T10:00:01.432Z,1031.12
2018-09-02T10:01:01.423Z,1030.44
2018-09-02T10:02:01.425Z,1029.78
2018-09-02T10:03:01.568Z,1029.78
2018-09-02T10:04:01.468Z,1028.19
2018-09-02T10:05:01.494Z,1026.12
2018-09-02T10:06:01.502Z,1025.23
2018-09-02T10:07:01.517Z,1024.41
2018-09-02T10:08:01.543Z,1023.80
2018-09-02T10:09:01.573Z,1023.39
2018-09-02T10:10:01.590Z,1023.01
2018-09-02T10:11:01.597Z,1022.81
2018-09-02T10:12:01.641Z,1022.62
2018-09-02T10:13:01.750Z,1022.54
2018-09-02T10:14:01.631Z,1022.47
2018-09-02T10:15:01.669Z,1022.28
2018-09-02T10:16:01.692Z,1022.27
2018-09-02T10:17:01.703Z,1022.27
2018-09-02T10:18:01.815Z,1022.27
2018-09-02T10:19:01.734Z,1022.20
2018-09-02T10:20:01.773Z,1022.25
2018-09-02T10:21:01.759Z,1022.04
2018-09-02T10:22:01.767Z,1022.07
2018-09-02T10:23:02.384Z,1022.03
2018-09-02T10:24:01.805Z,1022.01
2018-09-02T10:25:01.797Z,1021.97
2018-09-02T10:26:01.827Z,1022.21
2018-09-02T10:27:01.856Z,1022.02
2018-09-02T10:28:01.856Z,1021.82
2018-09-02T10:29:01.913Z,1021.81
2018-09-02T10:30:01.909Z,1021.73
2018-09-02T10:31:01.915Z,1021.72
2018-09-02T10:32:01.947Z,1021.92
2018-09-02T10:33:01.923Z,1021.79
2018-09-02T10:34:01.931Z,1021.73
2018-09-02T10:35:01.988Z,1021.76
2018-09-02T10:36:02.011Z,1021.68
2018-09-02T10:37:01.993Z,1021.69
2018-09-02T10:38:02.006Z,1021.30
2018-09-02T10:39:02.039Z,1021.66
2018-09-02T10:40:02.037Z,1021.58
2018-09-02T10:41:02.079Z,1021.56
2018-09-02T10:42:02.094Z,1021.56
2018-09-02T10:43:02.136Z,1021.51
2018-09-02T10:44:02.137Z,1021.48
2018-09-02T10:45:02.122Z,1021.49
2018-09-02T10:46:02.160Z,1021.47
2018-09-02T10:47:02.162Z,1021.43
2018-09-02T10:48:02.207Z,1021.46
2018-09-02T10:49:02.216Z,1021.40
2018-09-02T10:50:02.256Z,1021.36
2018-09-02T10:51:02.232Z,1021.41
2018-09-02T10:52:02.248Z,1021.39
2018-09-02T10:53:02.277Z,1021.32
2018-09-02T10:54:02.273Z,1021.37
2018-09-02T10:55:02.411Z,1021.35
2018-09-02T10:56:02.323Z,1021.04
2018-09-02T10:57:02.480Z,1021.19
2018-09-02T10:58:02.341Z,1021.16
2018-09-02T10:59:02.418Z,1021.13
2018-09-02T11:00:02.410Z,1021.19
2018-09-02T11:01:02.426Z,1021.27
2018-09-02T11:02:02.401Z,1021.19
2018-09-02T11:03:02.436Z,1021.15
2018-09-02T11:04:02.448Z,1021.13
2018-09-02T11:05:03.424Z,1021.12
2018-09-02T11:06:02.465Z,1021.10
2018-09-02T11:07:02.506Z,1021.07
2018-09-02T11:08:02.548Z,1021.08
2018-09-02T11:09:02.510Z,1021.07
2018-09-02T11:10:02.540Z,1020.95
2018-09-02T11:11:02.560Z,1020.87
2018-09-02T11:12:02.554Z,1020.85
2018-09-02T11:13:02.616Z,1020.73
2018-09-02T11:14:02.771Z,1020.69
2018-09-02T11:15:02.733Z,1020.64
2018-09-02T11:16:02.646Z,1020.63
2018-09-02T11:17:02.651Z,1020.56
2018-09-02T11:18:02.640Z,1020.61
2018-09-02T11:19:02.697Z,1020.49
2018-09-02T11:20:02.670Z,1020.56
2018-09-02T11:21:02.685Z,1020.47
2018-09-02T11:22:02.699Z,1020.49
2018-09-02T11:23:02.725Z,1020.48
2018-09-02T11:24:02.736Z,1020.52
2018-09-02T11:25:02.834Z,1020.46
2018-09-02T11:26:02.747Z,1020.39
2018-09-02T11:27:02.761Z,1020.36
2018-09-02T11:28:02.763Z,1020.36
2018-09-02T11:29:02.774Z,1020.41
2018-09-02T11:30:02.797Z,1020.43
2018-09-02T11:31:02.836Z,1020.44
2018-09-02T11:32:02.807Z,1020.40
2018-09-02T11:33:02.811Z,1020.45
2018-09-02T11:34:02.838Z,1020.42
2018-09-02T11:35:03.454Z,1020.41
2018-09-02T11:36:02.840Z,1020.35
2018-09-02T11:37:02.842Z,1020.34
2018-09-02T11:38:02.858Z,1020.33
2018-09-02T11:39:02.903Z,1020.39
2018-09-02T11:40:02.879Z,1020.25
2018-09-02T11:41:02.939Z,1020.20
2018-09-02T11:42:02.905Z,1020.20
2018-09-02T11:43:02.894Z,1020.15
2018-09-02T11:44:02.943Z,1020.16
2018-09-02T11:45:03.040Z,1020.07
2018-09-02T11:46:02.941Z,1020.01
2018-09-02T11:47:02.957Z,1020.04
2018-09-02T11:48:03.063Z,1020.02
2018-09-02T11:49:03.079Z,1020.07
2018-09-02T11:50:03.796Z,1020.02
2018-09-02T11:51:02.988Z,1020.03
2018-09-02T11:52:03.013Z,1019.99
2018-09-02T11:53:03.034Z,1019.99
2018-09-02T11:54:03.048Z,1019.98
2018-09-02T11:55:03.063Z,1019.97
2018-09-02T11:56:03.070Z,1019.98
2018-09-02T11:57:03.014Z,1019.96
2018-09-02T11:58:03.247Z,1019.93
2018-09-02T11:59:03.043Z,1019.94
2018-09-02T12:00:03.978Z,1019.92
2018-09-02T12:01:03.058Z,1019.89
2018-09-02T12:02:03.081Z,1019.96
2018-09-02T12:03:03.116Z,1019.97
2018-09-02T12:04:03.181Z,1019.88
2018-09-02T12:05:03.154Z,1019.84
2018-09-02T12:06:03.106Z,1019.82